Time;durP1;ratioP1;P1;durP2;ratioP2;P2;SDS_P1;SDS_P2;PMS_P1;PMS_P2;Temp;Humidity;BMP_temperature;BMP_pressure;BME280_temperature;BME280_humidity;BME280_pressure;Samples;Min_cycle;Max_cycle;Signal;HPM_P1;HPM_P2
2021/04/12 00:00:01;;;;;;;1.30;0.30;;;-0.20;99.90;;;;;;5086196;28;20374;-76
2021/04/12 00:02:59;;;;;;;0.95;0.30;;;-0.40;99.90;;;;;;5034600;28;20041;-76
2021/04/12 00:05:44;;;;;;;2.05;0.30;;;-0.50;99.90;;;;;;5010019;28;20041;-76
2021/04/12 00:08:31;;;;;;;1.63;0.28;;;-0.50;99.90;;;;;;5026735;28;20521;-76
2021/04/12 00:11:15;;;;;;;2.60;0.30;;;-0.50;99.90;;;;;;5043211;28;20108;-77
2021/04/12 00:13:55;;;;;;;1.02;0.32;;;-0.60;99.90;;;;;;5043472;28;20060;-76
2021/04/12 00:16:34;;;;;;;;;;;-0.60;99.90;;;;;;5043631;28;20037;-76
2021/04/12 00:19:15;;;;;;;1.80;0.60;;;-0.60;99.90;;;;;;5026910;28;19909;-76
2021/04/12 00:21:49;;;;;;;0.93;0.30;;;-0.60;99.90;;;;;;5026665;28;20033;-76
2021/04/12 00:24:34;;;;;;;2.58;0.40;;;-0.70;99.90;;;;;;5043258;28;20057;-76
2021/04/12 00:27:29;;;;;;;1.95;0.40;;;-0.50;99.90;;;;;;5042939;28;20067;-77
2021/04/12 00:30:15;;;;;;;1.50;0.30;;;-0.60;99.90;;;;;;5005972;28;20087;-76
2021/04/12 00:33:03;;;;;;;1.05;0.35;;;-0.70;99.90;;;;;;5049373;28;20080;-76
2021/04/12 00:35:31;;;;;;;1.17;0.30;;;-0.70;99.90;;;;;;5057711;28;20056;-76
2021/04/12 00:38:37;;;;;;;1.13;0.40;;;-0.80;99.90;;;;;;5065142;28;20042;-76
2021/04/12 00:41:29;;;;;;;4.82;0.50;;;-0.80;99.90;;;;;;5063258;28;20056;-76
2021/04/12 00:44:08;;;;;;;1.20;0.20;;;-0.90;99.90;;;;;;5047517;28;20046;-76
2021/04/12 00:46:40;;;;;;;2.15;0.30;;;-0.90;99.90;;;;;;5064045;28;20080;-77
2021/04/12 00:49:34;;;;;;;2.75;0.40;;;-0.80;99.90;;;;;;5047711;28;20057;-76
2021/04/12 00:52:27;;;;;;;1.55;0.40;;;-0.90;99.90;;;;;;5064055;28;20029;-76
2021/04/12 00:55:18;;;;;;;1.00;0.30;;;-1.00;99.90;;;;;;5063779;28;20048;-76
2021/04/12 00:58:00;;;;;;;;;;;-0.90;99.90;;;;;;5064378;28;20035;-76
2021/04/12 01:00:44;;;;;;;2.97;0.30;;;-1.00;99.90;;;;;;5064415;28;19919;-76
2021/04/12 01:03:36;;;;;;;3.35;0.45;;;-0.80;99.90;;;;;;5063815;28;20059;-76
2021/04/12 01:06:30;;;;;;;2.08;0.35;;;-0.90;99.90;;;;;;5077534;28;20041;-76
2021/04/12 01:09:35;;;;;;;2.45;0.40;;;-0.80;99.90;;;;;;5046991;28;20037;-76
2021/04/12 01:12:29;;;;;;;1.30;0.40;;;-0.50;99.90;;;;;;5043245;28;20045;-76
2021/04/12 01:14:58;;;;;;;1.45;0.40;;;-0.50;99.90;;;;;;5062996;28;20444;-76
2021/04/12 01:17:53;;;;;;;1.45;0.30;;;-0.50;99.90;;;;;;5045071;28;20022;-76
2021/04/12 01:20:38;;;;;;;4.47;0.40;;;-0.70;99.90;;;;;;5027477;28;20026;-77
2021/04/12 01:23:44;;;;;;;2.67;0.63;;;-0.70;99.90;;;;;;5045040;28;20036;-76
2021/04/12 01:26:35;;;;;;;2.60;0.38;;;-0.60;99.90;;;;;;5048809;28;20039;-77
2021/04/12 01:29:28;;;;;;;4.28;0.47;;;-0.60;99.90;;;;;;5048844;28;20025;-77
2021/04/12 01:32:28;;;;;;;2.13;0.40;;;-0.60;99.90;;;;;;5048961;28;20100;-76
2021/04/12 01:35:24;;;;;;;5.00;0.57;;;-0.40;99.90;;;;;;5047416;28;20136;-77
2021/04/12 01:38:20;;;;;;;2.83;0.40;;;-0.30;99.90;;;;;;5030757;28;20291;-76
2021/04/12 01:40:51;;;;;;;4.05;0.60;;;-0.30;99.90;;;;;;5047304;28;20064;-77
2021/04/12 01:43:48;;;;;;;2.20;0.65;;;-0.20;99.90;;;;;;5048523;28;20104;-76
2021/04/12 01:46:21;;;;;;;2.42;0.88;;;-0.20;99.90;;;;;;5026819;28;20441;-76
2021/04/12 01:48:54;;;;;;;2.13;0.50;;;-0.20;99.90;;;;;;5048390;28;20253;-76
2021/04/12 01:51:35;;;;;;;2.35;0.60;;;-0.20;99.90;;;;;;5047347;28;20033;-76
2021/04/12 01:54:19;;;;;;;6.07;0.93;;;0.00;99.90;;;;;;5048271;28;20093;-76
2021/04/12 01:56:48;;;;;;;3.72;0.88;;;-0.10;99.90;;;;;;5046825;28;20033;-76
2021/04/12 01:59:43;;;;;;;4.57;0.70;;;-0.20;99.90;;;;;;5046840;28;20037;-76
2021/04/12 02:02:38;;;;;;;2.35;0.73;;;-0.30;99.90;;;;;;5054716;28;20013;-76
2021/04/12 02:05:27;;;;;;;2.95;0.68;;;-0.30;99.90;;;;;;5077318;28;20028;-76
2021/04/12 02:08:08;;;;;;;4.60;0.50;;;-0.30;99.90;;;;;;5069959;28;20052;-76
2021/04/12 02:11:11;;;;;;;4.28;0.70;;;-0.20;99.90;;;;;;5088354;28;20107;-76
2021/04/12 02:14:15;;;;;;;5.75;1.00;;;-0.30;99.90;;;;;;5070069;28;20040;-76
2021/04/12 02:17:18;;;;;;;3.95;0.60;;;-0.30;99.90;;;;;;5070156;28;20513;-76
2021/04/12 02:20:04;;;;;;;3.25;0.60;;;-0.40;99.90;;;;;;5087987;28;20031;-76
2021/04/12 02:22:45;;;;;;;3.38;0.93;;;-0.40;99.90;;;;;;5070047;28;20085;-76
2021/04/12 02:25:32;;;;;;;2.47;0.80;;;-0.30;99.90;;;;;;5069757;28;20021;-76
2021/04/12 02:28:28;;;;;;;2.70;0.60;;;-0.20;99.90;;;;;;5070078;28;20032;-76
2021/04/12 02:31:22;;;;;;;2.78;0.75;;;-0.40;99.90;;;;;;5070070;28;20124;-76
2021/04/12 02:34:20;;;;;;;2.45;0.70;;;-0.30;99.90;;;;;;5069722;28;20482;-76
2021/04/12 02:37:23;;;;;;;3.08;0.88;;;-0.50;99.90;;;;;;5069516;28;20028;-76
2021/04/12 02:40:27;;;;;;;1.90;0.60;;;-0.70;99.90;;;;;;5069651;28;20457;-76
2021/04/12 02:43:05;;;;;;;1.55;0.55;;;-0.70;99.90;;;;;;5087696;28;20553;-76
2021/04/12 02:45:53;;;;;;;2.10;0.63;;;-0.60;99.90;;;;;;5069579;28;20089;-75
2021/04/12 02:48:33;;;;;;;2.75;0.70;;;-0.70;99.90;;;;;;5087664;28;20043;-76
2021/04/12 02:51:18;;;;;;;2.35;0.70;;;-0.40;99.90;;;;;;5087611;28;20032;-76
2021/04/12 02:54:26;;;;;;;2.80;0.70;;;-0.60;99.90;;;;;;5069364;28;20507;-76
2021/04/12 02:57:29;;;;;;;1.85;0.60;;;-0.70;99.90;;;;;;5063887;28;20058;-76
2021/04/12 03:00:09;;;;;;;2.25;0.60;;;-0.80;99.90;;;;;;5087242;28;20032;-75
2021/04/12 03:03:13;;;;;;;1.92;0.50;;;-0.80;99.90;;;;;;5077105;28;20029;-76
2021/04/12 03:06:03;;;;;;;1.55;0.50;;;-0.80;99.90;;;;;;5080618;28;20067;-77
2021/04/12 03:08:52;;;;;;;1.90;0.50;;;-0.70;99.90;;;;;;5069115;28;20032;-76
2021/04/12 03:11:50;;;;;;;1.83;0.55;;;-0.70;99.90;;;;;;5068883;28;20025;-76
2021/04/12 03:14:25;;;;;;;2.97;0.70;;;-0.80;99.90;;;;;;5086756;28;20093;-76
2021/04/12 03:16:59;;;;;;;2.47;0.50;;;-0.90;99.90;;;;;;5068783;28;20108;-76
2021/04/12 03:19:56;;;;;;;4.40;0.55;;;-0.80;99.90;;;;;;5086703;28;20056;-76
2021/04/12 03:22:51;;;;;;;3.72;0.57;;;-0.80;99.90;;;;;;5086806;28;20055;-76
2021/04/12 03:25:55;;;;;;;1.95;0.50;;;-0.70;99.90;;;;;;5086633;28;20024;-76
2021/04/12 03:29:08;;;;;;;2.58;0.50;;;-0.80;99.90;;;;;;5086460;28;20055;-76
2021/04/12 03:31:34;;;;;;;2.45;0.60;;;-0.90;99.90;;;;;;5044116;28;20108;-76
2021/04/12 03:34:29;;;;;;;1.63;0.52;;;-0.90;99.90;;;;;;5044053;28;20524;-76
2021/04/12 03:37:17;;;;;;;2.83;0.82;;;-1.00;99.90;;;;;;5074697;28;20481;-76
2021/04/12 03:39:43;;;;;;;2.03;0.60;;;-1.00;99.90;;;;;;5086325;28;20064;-76
2021/04/12 03:42:54;;;;;;;3.17;0.65;;;-1.10;99.90;;;;;;5068343;28;20070;-76
2021/04/12 03:45:28;;;;;;;2.38;0.60;;;-1.10;99.90;;;;;;5070046;28;20032;-76
2021/04/12 03:48:36;;;;;;;3.70;0.70;;;-1.10;99.90;;;;;;5067646;28;20115;-76
2021/04/12 03:51:02;;;;;;;3.75;0.60;;;-0.90;99.90;;;;;;5068196;28;20442;-76
2021/04/12 03:54:05;;;;;;;2.63;0.60;;;-1.10;99.90;;;;;;5068380;28;20056;-76
2021/04/12 03:56:51;;;;;;;2.10;0.60;;;-1.10;99.90;;;;;;5084664;28;20306;-76
2021/04/12 03:59:37;;;;;;;2.90;0.60;;;-1.10;99.90;;;;;;5085819;28;20461;-76
2021/04/12 04:02:23;;;;;;;2.55;0.60;;;-1.10;99.90;;;;;;5062415;28;20035;-76
2021/04/12 04:05:21;;;;;;;2.60;0.57;;;-1.00;99.90;;;;;;5064176;28;20037;-76
2021/04/12 04:08:01;;;;;;;2.10;0.60;;;-0.90;99.90;;;;;;4984237;28;20070;-76
2021/04/12 04:10:44;;;;;;;;;;;-0.70;99.90;;;;;;4968876;28;20070;-76
2021/04/12 04:13:44;;;;;;;5.13;0.90;;;-0.40;99.90;;;;;;4984525;28;20043;-76
2021/04/12 04:16:27;;;;;;;3.33;0.77;;;-0.40;99.90;;;;;;4968219;28;20042;-76
2021/04/12 04:18:57;;;;;;;2.30;0.70;;;-0.60;99.90;;;;;;4952321;28;20035;-76
2021/04/12 04:21:56;;;;;;;3.53;0.70;;;-0.70;99.90;;;;;;4983882;28;20050;-76
2021/04/12 04:24:47;;;;;;;3.20;0.70;;;-0.80;99.90;;;;;;4984190;28;20019;-76
2021/04/12 04:27:50;;;;;;;2.33;0.70;;;-1.10;99.90;;;;;;4967754;28;20110;-76
2021/04/12 04:30:38;;;;;;;2.38;0.70;;;-1.00;99.90;;;;;;4984380;28;20058;-76
2021/04/12 04:33:40;;;;;;;4.28;0.70;;;-1.00;99.90;;;;;;4984387;28;20027;-76
2021/04/12 04:36:36;;;;;;;4.63;0.75;;;-0.90;99.90;;;;;;4983685;28;20049;-76
2021/04/12 04:39:27;;;;;;;2.78;0.88;;;-1.00;99.90;;;;;;4984266;28;20043;-75
2021/04/12 04:42:11;;;;;;;2.90;0.80;;;-1.20;99.90;;;;;;4984367;28;20054;-75
2021/04/12 04:44:55;;;;;;;3.08;0.70;;;-1.10;99.90;;;;;;5021231;28;20040;-77
2021/04/12 04:47:50;;;;;;;4.70;0.70;;;-1.20;99.90;;;;;;5065143;28;20055;-77
2021/04/12 04:50:50;;;;;;;2.70;0.88;;;-1.20;99.90;;;;;;5011480;28;20049;-77
2021/04/12 04:53:25;;;;;;;3.78;0.70;;;-1.20;99.90;;;;;;5063704;28;20045;-77
2021/04/12 04:56:00;;;;;;;4.28;1.00;;;-1.10;99.90;;;;;;5065058;28;20470;-77
2021/04/12 04:58:46;;;;;;;3.70;0.60;;;-0.90;99.90;;;;;;5048598;28;20036;-76
2021/04/12 05:01:18;;;;;;;4.47;0.82;;;-1.00;99.90;;;;;;5051183;28;20048;-77
2021/04/12 05:04:02;;;;;;;3.53;0.85;;;-0.60;99.90;;;;;;5051121;28;20041;-77
2021/04/12 05:07:05;;;;;;;4.80;1.30;;;-0.60;99.90;;;;;;5060187;28;20051;-77
2021/04/12 05:09:54;;;;;;;5.10;1.17;;;-0.30;99.90;;;;;;5048415;28;20041;-76
2021/04/12 05:13:08;;;;;;;5.90;1.63;;;-0.40;99.90;;;;;;5061188;28;20037;-77
2021/04/12 05:16:11;;;;;;;3.30;1.17;;;-0.30;99.90;;;;;;5036042;28;20052;-76
2021/04/12 05:19:05;;;;;;;3.45;1.30;;;-0.20;99.90;;;;;;5068267;28;20065;-77
2021/04/12 05:21:59;;;;;;;7.05;2.03;;;0.00;99.90;;;;;;5068071;28;20025;-76
2021/04/12 05:24:47;;;;;;;3.75;1.20;;;0.10;99.90;;;;;;5068265;28;20482;-76
2021/04/12 05:27:31;;;;;;;3.08;1.30;;;0.00;99.90;;;;;;5067966;28;20032;-76
2021/04/12 05:30:08;;;;;;;6.32;1.25;;;0.20;99.90;;;;;;5068069;28;20032;-77
2021/04/12 05:32:58;;;;;;;5.65;1.33;;;0.10;99.90;;;;;;5082754;28;20048;-76
2021/04/12 05:35:42;;;;;;;;;;;0.10;99.90;;;;;;5047893;28;20036;-76
2021/04/12 05:38:27;;;;;;;4.38;0.73;;;0.20;99.90;;;;;;5047831;28;19916;-77
2021/04/12 05:41:00;;;;;;;3.38;1.00;;;0.20;99.90;;;;;;5047941;28;20089;-77
2021/04/12 05:43:57;;;;;;;2.63;0.80;;;0.30;99.90;;;;;;5048201;28;20047;-76
2021/04/12 05:46:42;;;;;;;3.30;0.88;;;0.30;99.90;;;;;;5047488;28;20519;-77
2021/04/12 05:49:33;;;;;;;2.65;0.90;;;0.30;99.90;;;;;;5047938;28;20570;-77
2021/04/12 05:52:17;;;;;;;2.22;0.80;;;0.40;99.90;;;;;;5067561;28;20033;-77
2021/04/12 05:55:10;;;;;;;2.42;0.80;;;0.40;99.90;;;;;;5066407;28;20088;-76
2021/04/12 05:58:04;;;;;;;4.65;0.88;;;0.50;99.90;;;;;;5049461;28;20076;-76
2021/04/12 06:00:59;;;;;;;3.13;1.17;;;0.70;99.90;;;;;;5067348;28;20032;-76
2021/04/12 06:03:52;;;;;;;2.65;0.93;;;0.80;99.90;;;;;;5067236;28;20029;-76
2021/04/12 06:07:06;;;;;;;5.13;0.70;;;0.90;99.90;;;;;;5089506;22;20045;-76
2021/04/12 06:09:52;;;;;;;4.60;1.08;;;0.80;99.90;;;;;;5049031;28;20060;-76
2021/04/12 06:12:37;;;;;;;3.50;1.00;;;1.00;99.90;;;;;;5033259;28;20040;-76
2021/04/12 06:15:29;;;;;;;4.45;1.10;;;1.30;99.90;;;;;;5049484;28;20067;-76
2021/04/12 06:18:23;;;;;;;7.80;1.50;;;1.30;99.90;;;;;;5033144;28;20048;-76
2021/04/12 06:21:16;;;;;;;2.83;1.02;;;1.50;99.90;;;;;;5032754;28;20033;-76
2021/04/12 06:24:20;;;;;;;3.35;1.33;;;1.40;99.90;;;;;;5067564;28;20052;-76
2021/04/12 06:27:02;;;;;;;2.30;1.00;;;1.40;99.90;;;;;;5049221;28;20056;-77
2021/04/12 06:29:51;;;;;;;2.80;0.88;;;1.60;99.90;;;;;;5067441;28;20033;-76
2021/04/12 06:33:03;;;;;;;3.75;0.75;;;1.80;99.90;;;;;;5032828;28;20037;-77
2021/04/12 06:35:43;;;;;;;3.47;1.05;;;1.90;99.90;;;;;;5048866;28;20044;-77
2021/04/12 06:38:48;;;;;;;5.63;1.38;;;2.20;99.90;;;;;;5033265;28;20029;-76
2021/04/12 06:41:41;;;;;;;3.22;1.00;;;2.40;99.90;;;;;;5067539;28;20033;-77
2021/04/12 06:44:58;;;;;;;3.45;0.82;;;2.50;99.90;;;;;;5049089;28;20072;-77
2021/04/12 06:47:39;;;;;;;2.35;0.70;;;2.70;99.90;;;;;;5050497;28;20044;-77
2021/04/12 06:50:38;;;;;;;4.93;1.00;;;3.00;99.90;;;;;;5048377;28;20051;-78
2021/04/12 06:53:35;;;;;;;1.85;0.60;;;3.00;99.90;;;;;;5031967;28;20048;-77
2021/04/12 06:56:18;;;;;;;4.22;0.50;;;3.20;99.90;;;;;;5032069;28;20028;-77
2021/04/12 06:59:10;;;;;;;2.08;0.57;;;3.40;99.90;;;;;;5048424;28;20091;-77
2021/04/12 07:01:51;;;;;;;2.40;0.70;;;3.50;99.90;;;;;;5048545;28;20064;-77
2021/04/12 07:08:49;;;;;;;3.33;0.85;;;3.70;99.90;;;;;;5001454;28;20042;-77
2021/04/12 07:11:42;;;;;;;3.00;0.60;;;3.90;99.90;;;;;;4930540;29;20417;-76
2021/04/12 07:14:41;;;;;;;3.35;0.43;;;3.80;99.90;;;;;;4946370;29;20052;-77
2021/04/12 07:17:46;;;;;;;2.78;0.40;;;3.60;99.90;;;;;;4899707;29;20140;-77
2021/04/12 07:20:44;;;;;;;3.72;1.10;;;3.90;99.90;;;;;;4930267;29;20043;-76
2021/04/12 07:23:28;;;;;;;1.67;0.45;;;4.10;99.90;;;;;;4946177;29;20043;-77
2021/04/12 07:26:31;;;;;;;2.80;0.40;;;4.20;99.90;;;;;;4946206;29;20075;-77
2021/04/12 07:29:14;;;;;;;1.90;0.30;;;4.20;99.90;;;;;;4930075;29;20161;-77
2021/04/12 07:31:52;;;;;;;1.58;0.40;;;4.30;99.90;;;;;;4946093;29;20036;-77
2021/04/12 07:34:38;;;;;;;5.03;0.50;;;4.40;99.90;;;;;;4945621;29;20043;-77
2021/04/12 07:37:43;;;;;;;1.40;0.50;;;4.50;99.90;;;;;;4946005;29;20043;-77
2021/04/12 07:40:56;;;;;;;1.88;0.40;;;4.70;99.90;;;;;;4917559;29;20071;-76
2021/04/12 07:43:50;;;;;;;3.25;0.40;;;4.60;99.90;;;;;;4987744;28;20035;-77
2021/04/12 07:46:55;;;;;;;1.88;0.40;;;4.70;99.90;;;;;;5047733;28;20473;-77
2021/04/12 07:49:49;;;;;;;1.63;0.47;;;5.00;99.90;;;;;;5047200;28;20043;-77
2021/04/12 07:52:20;;;;;;;2.35;0.40;;;5.40;99.90;;;;;;5047864;28;20029;-77
2021/04/12 07:55:02;;;;;;;1.67;0.30;;;5.40;99.90;;;;;;5031020;28;20033;-77
2021/04/12 07:57:49;;;;;;;2.40;0.50;;;5.30;99.90;;;;;;5031656;28;20040;-77
2021/04/12 08:00:35;;;;;;;1.70;0.40;;;5.40;99.90;;;;;;5025806;28;20049;-77
2021/04/12 08:03:39;;;;;;;1.45;0.40;;;5.70;99.90;;;;;;5064355;28;20263;-79
2021/04/12 08:06:31;;;;;;;4.97;0.30;;;5.90;99.90;;;;;;5069451;28;20044;-77
2021/04/12 08:09:16;;;;;;;2.65;0.40;;;5.70;99.90;;;;;;5074646;28;20535;-78
2021/04/12 08:12:01;;;;;;;2.90;0.30;;;5.80;99.90;;;;;;5071982;28;20377;-78
2021/04/12 08:15:01;;;;;;;3.22;0.30;;;5.70;99.90;;;;;;5064525;28;20045;-79
2021/04/12 08:17:39;;;;;;;;;;;5.90;99.90;;;;;;5071631;28;20025;-77
2021/04/12 08:21:03;;;;;;;3.10;0.30;;;6.00;99.90;;;;;;5066352;28;19982;-77
2021/04/12 08:23:55;;;;;;;6.00;0.73;;;6.10;99.90;;;;;;5001070;28;20030;-77
2021/04/12 08:26:33;;;;;;;1.30;0.40;;;6.50;99.90;;;;;;5007986;28;20161;-77
2021/04/12 08:29:28;;;;;;;3.22;0.30;;;6.10;99.90;;;;;;4989999;28;20042;-77
2021/04/12 08:32:31;;;;;;;1.40;0.30;;;5.90;99.90;;;;;;4989339;28;20030;-77
2021/04/12 08:35:34;;;;;;;1.63;0.43;;;6.80;99.90;;;;;;4988794;28;20053;-77
2021/04/12 08:38:37;;;;;;;2.67;0.20;;;7.40;99.90;;;;;;4991384;28;20050;-77
2021/04/12 08:41:39;;;;;;;2.25;0.38;;;7.30;99.90;;;;;;4981959;28;20078;-77
2021/04/12 08:44:10;;;;;;;5.82;0.60;;;6.70;99.90;;;;;;4988011;28;20034;-77
2021/04/12 08:46:45;;;;;;;4.25;0.50;;;5.80;99.90;;;;;;4990855;28;20057;-78
2021/04/12 08:49:25;;;;;;;4.03;0.35;;;5.70;99.90;;;;;;4985263;28;20080;-77
2021/04/12 08:51:51;;;;;;;;;;;5.90;99.90;;;;;;4989345;28;20026;-78
2021/04/12 08:54:31;;;;;;;0.85;0.25;;;6.30;99.90;;;;;;5037016;28;19916;-78
2021/04/12 08:57:42;;;;;;;1.90;0.40;;;6.10;99.90;;;;;;5076107;28;20153;-78
2021/04/12 09:00:39;;;;;;;2.55;0.30;;;6.10;99.90;;;;;;5034925;28;20051;-78
2021/04/12 09:03:40;;;;;;;1.10;0.30;;;5.80;99.90;;;;;;5056726;28;20036;-78
2021/04/12 09:06:09;;;;;;;1.67;0.20;;;6.80;99.90;;;;;;5016972;28;20056;-77
2021/04/12 09:09:03;;;;;;;1.53;0.40;;;6.30;99.90;;;;;;5036580;28;20450;-78
2021/04/12 09:12:03;;;;;;;1.85;0.20;;;6.80;99.90;;;;;;5059007;28;20029;-78
2021/04/12 09:15:06;;;;;;;1.43;0.30;;;6.70;99.90;;;;;;5062123;28;20044;-77
2021/04/12 09:18:06;;;;;;;2.80;0.20;;;6.70;99.90;;;;;;5059717;28;20052;-78
2021/04/12 09:21:04;;;;;;;2.17;0.20;;;7.10;99.90;;;;;;5076481;28;20063;-78
2021/04/12 09:24:04;;;;;;;0.88;0.20;;;7.40;99.90;;;;;;5062113;28;20029;-78
2021/04/12 09:26:33;;;;;;;1.80;0.22;;;8.00;99.90;;;;;;5059135;28;20096;-78
2021/04/12 09:29:29;;;;;;;3.10;0.20;;;8.10;99.90;;;;;;5063605;28;20025;-77
2021/04/12 09:31:58;;;;;;;2.38;0.20;;;6.40;99.90;;;;;;5058953;28;20533;-77
2021/04/12 09:35:03;;;;;;;3.60;0.20;;;5.50;99.90;;;;;;5058194;28;20047;-78
2021/04/12 09:37:57;;;;;;;0.82;0.10;;;5.40;99.90;;;;;;5059333;28;20073;-77
2021/04/12 09:40:25;;;;;;;5.35;0.20;;;5.40;99.90;;;;;;5058216;28;20048;-78
2021/04/12 09:43:12;;;;;;;0.82;0.20;;;6.00;99.90;;;;;;5062872;28;20271;-78
2021/04/12 09:46:09;;;;;;;0.80;0.20;;;6.80;99.90;;;;;;5066274;28;20035;-79
2021/04/12 09:49:06;;;;;;;1.83;0.22;;;6.60;99.90;;;;;;5049633;28;20029;-78
2021/04/12 09:52:03;;;;;;;1.98;0.38;;;6.90;99.90;;;;;;5066342;28;20032;-78
2021/04/12 09:55:06;;;;;;;3.03;0.30;;;5.70;99.90;;;;;;5042214;28;20057;-77
2021/04/12 09:57:58;;;;;;;5.40;0.40;;;6.70;99.90;;;;;;5066462;28;20063;-77
2021/04/12 10:00:45;;;;;;;3.53;0.40;;;7.20;99.90;;;;;;5065748;28;20037;-77
2021/04/12 10:03:39;;;;;;;1.00;0.30;;;6.90;99.90;;;;;;5067340;28;20083;-77
2021/04/12 10:06:20;;;;;;;2.17;0.38;;;6.70;99.90;;;;;;5057870;28;20063;-77
2021/04/12 10:09:17;;;;;;;2.15;0.40;;;7.20;99.90;;;;;;5073141;28;20442;-77
2021/04/12 10:11:47;;;;;;;3.03;0.40;;;7.00;99.90;;;;;;5089619;28;20036;-77
2021/04/12 10:14:30;;;;;;;1.55;0.30;;;7.30;99.90;;;;;;5089583;28;20043;-78
2021/04/12 10:17:11;;;;;;;2.35;0.43;;;7.40;99.90;;;;;;5089098;28;20039;-77
2021/04/12 10:19:54;;;;;;;2.42;0.50;;;7.00;99.90;;;;;;5089547;28;20039;-77
2021/04/12 10:22:40;;;;;;;1.90;0.40;;;6.50;99.90;;;;;;5107460;28;20032;-77
2021/04/12 10:25:11;;;;;;;1.85;0.60;;;6.90;99.90;;;;;;5089246;28;20630;-77
2021/04/12 10:27:44;;;;;;;4.68;0.80;;;6.30;99.90;;;;;;5089077;28;20060;-77
2021/04/12 10:30:18;;;;;;;3.90;0.60;;;6.20;99.90;;;;;;5072370;28;20035;-77
2021/04/12 10:32:59;;;;;;;6.05;0.70;;;7.10;99.90;;;;;;5072180;28;20060;-77
2021/04/12 10:35:48;;;;;;;3.15;0.98;;;6.90;99.90;;;;;;5088759;28;20044;-77
2021/04/12 10:38:26;;;;;;;3.75;1.50;;;6.90;99.90;;;;;;5089196;28;20058;-77
2021/04/12 10:41:15;;;;;;;3.70;1.42;;;7.00;99.90;;;;;;5072096;28;20035;-77
2021/04/12 10:44:00;;;;;;;3.97;1.23;;;7.00;99.90;;;;;;5088890;28;20098;-77
2021/04/12 10:46:38;;;;;;;3.05;1.25;;;6.50;99.90;;;;;;5105225;28;20047;-78
2021/04/12 10:49:38;;;;;;;1.98;0.73;;;6.60;99.90;;;;;;5088960;28;20085;-77
2021/04/12 10:52:17;;;;;;;5.25;0.70;;;7.10;99.90;;;;;;5035795;28;20055;-78
2021/04/12 10:55:02;;;;;;;4.30;0.80;;;6.70;99.90;;;;;;5088734;28;20394;-77
2021/04/12 10:57:55;;;;;;;3.25;0.80;;;7.30;99.90;;;;;;5071926;28;20123;-78
2021/04/12 11:00:42;;;;;;;6.13;0.60;;;7.30;99.90;;;;;;5071868;28;20028;-78
2021/04/12 11:03:48;;;;;;;1.80;0.57;;;7.30;99.90;;;;;;5057136;28;20033;-77
2021/04/12 11:06:35;;;;;;;3.42;0.60;;;6.50;99.90;;;;;;5086469;28;20052;-77
2021/04/12 11:09:22;;;;;;;1.45;0.60;;;6.80;99.90;;;;;;5071529;28;20031;-77
2021/04/12 11:12:13;;;;;;;1.20;0.55;;;6.90;99.90;;;;;;5071513;28;20057;-77
2021/04/12 11:14:57;;;;;;;2.58;0.50;;;7.20;99.90;;;;;;5088351;28;20047;-77
2021/04/12 11:17:39;;;;;;;0.85;0.40;;;6.70;99.90;;;;;;5071186;28;20475;-77
2021/04/12 11:20:27;;;;;;;1.10;0.40;;;6.80;99.90;;;;;;5088047;28;20028;-77
2021/04/12 11:23:00;;;;;;;1.02;0.40;;;7.10;99.90;;;;;;5071115;28;20042;-77
2021/04/12 11:26:03;;;;;;;3.03;0.30;;;7.00;99.90;;;;;;5106208;28;20035;-77
2021/04/12 11:28:44;;;;;;;1.27;0.20;;;7.10;99.90;;;;;;5087642;28;20032;-77
2021/04/12 11:31:24;;;;;;;2.83;0.25;;;7.20;99.90;;;;;;5105875;28;20024;-77
2021/04/12 11:34:03;;;;;;;0.43;0.10;;;7.00;99.90;;;;;;5088011;28;20044;-77
2021/04/12 11:36:48;;;;;;;0.77;0.30;;;7.60;99.90;;;;;;5070787;28;20036;-77
2021/04/12 11:39:17;;;;;;;1.15;0.30;;;7.40;99.90;;;;;;5037475;28;20071;-77
2021/04/12 11:41:59;;;;;;;1.17;0.30;;;7.70;99.90;;;;;;5071047;28;20020;-77
2021/04/12 11:44:31;;;;;;;0.75;0.20;;;7.90;99.90;;;;;;5087644;28;20063;-77
2021/04/12 11:47:36;;;;;;;1.05;0.20;;;8.50;99.90;;;;;;5070404;28;20036;-77
2021/04/12 11:50:22;;;;;;;1.23;0.20;;;7.70;99.90;;;;;;5087732;28;20036;-77
2021/04/12 11:53:10;;;;;;;2.20;0.20;;;8.20;99.90;;;;;;5070608;28;20031;-77
2021/04/12 11:55:51;;;;;;;1.73;0.20;;;8.30;99.90;;;;;;5087169;28;20494;-77
2021/04/12 11:58:22;;;;;;;0.90;0.30;;;7.90;99.90;;;;;;5070467;28;20111;-77
2021/04/12 12:01:10;;;;;;;0.75;0.30;;;7.40;99.90;;;;;;5105276;28;20028;-77
2021/04/12 12:04:00;;;;;;;1.00;0.30;;;7.30;99.90;;;;;;5068183;28;20020;-77
2021/04/12 12:06:36;;;;;;;0.52;0.20;;;8.00;99.90;;;;;;5047085;28;20103;-77
2021/04/12 12:09:08;;;;;;;0.47;0.30;;;7.80;99.90;;;;;;5046766;28;20028;-77
2021/04/12 12:11:46;;;;;;;1.35;0.30;;;7.20;99.90;;;;;;5047382;28;20037;-77
2021/04/12 12:14:44;;;;;;;1.02;0.30;;;7.30;99.90;;;;;;5047176;28;20067;-77
2021/04/12 12:17:26;;;;;;;0.82;0.40;;;7.40;99.90;;;;;;5047130;28;20033;-77
2021/04/12 12:19:58;;;;;;;0.80;0.30;;;7.80;99.90;;;;;;5065239;28;20040;-77
2021/04/12 12:22:42;;;;;;;1.70;0.38;;;8.60;99.90;;;;;;5065145;28;20041;-77
2021/04/12 12:25:36;;;;;;;1.02;0.30;;;8.10;99.90;;;;;;5046900;28;20033;-77
2021/04/12 12:28:38;;;;;;;2.55;0.30;;;7.90;99.90;;;;;;5065105;28;20033;-77
2021/04/12 12:31:32;;;;;;;1.15;0.30;;;7.40;99.90;;;;;;5047358;28;20036;-77
2021/04/12 12:34:24;;;;;;;1.58;0.30;;;8.20;99.90;;;;;;5063541;28;20061;-77
2021/04/12 12:37:02;;;;;;;0.60;0.30;;;8.60;99.90;;;;;;5064876;28;20465;-77
2021/04/12 12:39:45;;;;;;;3.33;0.43;;;8.70;99.90;;;;;;5046926;28;20056;-78
2021/04/12 12:42:19;;;;;;;1.38;0.30;;;7.90;99.90;;;;;;5063760;28;20369;-78
2021/04/12 12:44:45;;;;;;;3.10;0.63;;;7.90;99.90;;;;;;5046656;28;20035;-77
2021/04/12 12:47:15;;;;;;;1.55;0.35;;;7.90;99.90;;;;;;5030444;28;20064;-77
2021/04/12 12:49:48;;;;;;;1.00;0.30;;;7.40;99.90;;;;;;5063688;28;20032;-77
2021/04/12 12:52:37;;;;;;;1.20;0.50;;;7.80;99.90;;;;;;5065035;28;20040;-77
2021/04/12 12:55:13;;;;;;;1.23;0.30;;;7.60;99.90;;;;;;5046756;28;20049;-77
2021/04/12 12:57:42;;;;;;;0.80;0.30;;;7.30;99.90;;;;;;5064809;28;20032;-77
2021/04/12 13:00:07;;;;;;;1.20;0.30;;;7.20;99.90;;;;;;5046727;28;20307;-77
2021/04/12 13:02:36;;;;;;;1.42;0.38;;;7.00;99.90;;;;;;5056462;28;20025;-77
2021/04/12 13:05:23;;;;;;;2.05;0.40;;;6.60;99.90;;;;;;5066646;28;20088;-77
2021/04/12 13:07:51;;;;;;;2.17;0.55;;;6.40;99.90;;;;;;5006151;28;20054;-77
2021/04/12 13:10:25;;;;;;;3.55;0.40;;;6.20;99.90;;;;;;5002577;28;20050;-77
2021/04/12 13:12:52;;;;;;;1.13;0.30;;;5.80;99.90;;;;;;4986474;28;20039;-77
2021/04/12 13:15:26;;;;;;;2.17;0.40;;;5.80;99.90;;;;;;5002509;28;20050;-77
2021/04/12 13:17:53;;;;;;;1.05;0.40;;;5.50;99.90;;;;;;5002593;28;20370;-76
2021/04/12 13:20:46;;;;;;;1.73;0.35;;;5.40;99.90;;;;;;5006316;28;20026;-77
2021/04/12 13:23:18;;;;;;;1.52;0.40;;;5.40;99.90;;;;;;5006501;28;20526;-77
2021/04/12 13:25:49;;;;;;;2.05;0.40;;;5.20;99.90;;;;;;5006277;28;20106;-77
2021/04/12 13:28:30;;;;;;;2.28;0.50;;;4.90;99.90;;;;;;5006342;28;20042;-77
2021/04/12 13:31:08;;;;;;;3.47;0.40;;;4.90;99.90;;;;;;5006356;28;20067;-77
2021/04/12 13:33:40;;;;;;;1.75;0.30;;;4.70;99.90;;;;;;5006327;28;20050;-77
2021/04/12 13:36:24;;;;;;;2.10;0.20;;;4.90;99.90;;;;;;5006004;28;20034;-77
2021/04/12 13:38:53;;;;;;;2.47;0.40;;;4.90;99.90;;;;;;5006187;28;20046;-76
2021/04/12 13:41:25;;;;;;;1.25;0.40;;;5.00;99.90;;;;;;5006066;28;20073;-77
2021/04/12 13:43:56;;;;;;;1.63;0.40;;;5.00;99.90;;;;;;5010543;28;20414;-76
2021/04/12 13:46:28;;;;;;;2.22;0.40;;;5.00;99.90;;;;;;5050110;28;20036;-77
2021/04/12 13:49:10;;;;;;;1.27;0.30;;;5.00;99.90;;;;;;5049732;28;20060;-76
2021/04/12 13:51:49;;;;;;;2.15;0.50;;;4.70;99.90;;;;;;5033312;28;20058;-76
2021/04/12 13:54:44;;;;;;;1.63;0.47;;;4.80;99.90;;;;;;5066362;28;20108;-76
2021/04/12 13:57:25;;;;;;;1.02;0.30;;;5.20;99.90;;;;;;5065023;28;20044;-76
2021/04/12 13:59:57;;;;;;;2.40;0.40;;;5.60;99.90;;;;;;5066066;28;20029;-76
2021/04/12 14:02:29;;;;;;;0.90;0.22;;;5.90;99.90;;;;;;5049605;28;20025;-78
2021/04/12 14:05:24;;;;;;;1.02;0.30;;;6.00;99.90;;;;;;5056999;28;20047;-79
2021/04/12 14:07:56;;;;;;;1.70;0.30;;;6.30;99.90;;;;;;5045112;28;20620;-79
2021/04/12 14:10:56;;;;;;;3.30;0.28;;;6.10;99.90;;;;;;5044831;28;20037;-76
2021/04/12 14:13:32;;;;;;;2.42;0.28;;;6.30;99.90;;;;;;5027809;28;20041;-77
2021/04/12 14:16:17;;;;;;;1.27;0.17;;;6.60;99.90;;;;;;5028461;28;20045;-76
2021/04/12 14:18:47;;;;;;;0.63;0.20;;;6.10;99.90;;;;;;5028531;28;20075;-76
2021/04/12 14:21:36;;;;;;;1.15;0.13;;;6.50;99.90;;;;;;5045645;28;20033;-76
2021/04/12 14:24:29;;;;;;;1.38;0.10;;;6.70;99.90;;;;;;5045718;28;20367;-78
2021/04/12 14:27:23;;;;;;;1.20;0.10;;;6.80;99.90;;;;;;5028919;28;20105;-76
2021/04/12 14:30:06;;;;;;;1.80;0.10;;;7.00;99.90;;;;;;5044465;28;20030;-76
2021/04/12 14:32:49;;;;;;;1.63;0.20;;;7.40;99.90;;;;;;5028667;28;20050;-76
2021/04/12 14:35:28;;;;;;;2.67;0.10;;;7.40;99.90;;;;;;5027887;28;20041;-78
2021/04/12 14:38:12;;;;;;;2.87;0.20;;;7.50;99.90;;;;;;5044973;28;20052;-76
2021/04/12 14:40:41;;;;;;;1.55;0.20;;;7.60;99.90;;;;;;5025748;28;20030;-77
2021/04/12 14:43:24;;;;;;;1.30;0.40;;;8.00;99.90;;;;;;5006384;28;20030;-77